KRFD/RFD METAR and TAF weather

Enter ICAO airport designator
Station Type Date Time Source
KRFD METAR 2017/09/24 12:54 UTC NOAA

KRFD 241254Z 16005KT 8SM CLR 21/18 A3010 RMK AO2 SLP187 T02060178


Station Type Date Time Source
KRFD Decoded METAR 2017/09/24 12:54 UTC NOAA

GREATER ROCKFORD AIRPORT, IL, United States (KRFD) 42-12N 89-06W 221M
Sep 24, 2017 - 08:54 AM EDT / 2017.09.24 1254 UTC
Wind: from the SSE (160 degrees) at 6 MPH (5 KT):0
Visibility: 8 mile(s):0
Sky conditions: clear
Temperature: 69.1 F (20.6 C)
Dew Point: 64.0 F (17.8 C)
Relative Humidity: 83%
Pressure (altimeter): 30.1 in. Hg (1019 hPa)
ob: KRFD 241254Z 16005KT 8SM CLR 21/18 A3010 RMK AO2 SLP187 T02060178
cycle: 13

Station Type Date Time Source
KRFD TAF 2017/09/24 12:24 UTC NOAA

TAF KRFD 241120Z 2412/2512 15003KT P6SM SKC
FM241500 16008KT P6SM FEW050
FM250100 14004KT P6SM SKC


Example: see airport list